Time;durP1;ratioP1;P1;durP2;ratioP2;P2;SDS_P1;SDS_P2;PMS_P1;PMS_P2;Temp;Humidity;BMP_temperature;BMP_pressure;BME280_temperature;BME280_humidity;BME280_pressure;Samples;Min_cycle;Max_cycle;Signal;HPM_P1;HPM_P2
2024/01/19 00:01:23;;;;;;;;;;;;;;;;;;5109907;28;19920;-66
2024/01/19 00:03:49;;;;;;;;;;;;;;;;;;5122140;27;19923;-66
2024/01/19 00:06:15;;;;;;;;;;;;;;;;;;5129918;27;20444;-66
2024/01/19 00:08:41;;;;;;;;;;;;;;;;;;5128475;27;20376;-66
2024/01/19 00:11:07;;;;;;;;;;;;;;;;;;5131865;27;19923;-65
2024/01/19 00:13:33;;;;;;;;;;;;;;;;;;5124914;27;19927;-65
2024/01/19 00:15:59;;;;;;;;;;;;;;;;;;5124666;27;19919;-65
2024/01/19 00:18:26;;;;;;;;;;;;;;;;;;5135937;27;19923;-65
2024/01/19 00:20:52;;;;;;;;;;;;;;;;;;5101112;27;19938;-66
2024/01/19 00:23:17;;;;;;;;;;;;;;;;;;5130141;27;19927;-66
2024/01/19 00:25:43;;;;;;;;;;;;;;;;;;5137253;27;19919;-66
2024/01/19 00:28:09;;;;;;;;;;;;;;;;;;5130159;27;19926;-66
2024/01/19 00:30:35;;;;;;;;;;;;;;;;;;5126169;27;19931;-66
2024/01/19 00:33:01;;;;;;;;;;;;;;;;;;5134619;27;19919;-67
2024/01/19 00:35:27;;;;;;;;;;;;;;;;;;5130717;27;19928;-66
2024/01/19 00:37:53;;;;;;;;;;;;;;;;;;5124759;27;19935;-67
2024/01/19 00:40:19;;;;;;;;;;;;;;;;;;5130849;27;20295;-66
2024/01/19 00:42:45;;;;;;;;;;;;;;;;;;5132112;27;19973;-66
2024/01/19 00:45:11;;;;;;;;;;;;;;;;;;5126099;27;20058;-67
2024/01/19 00:47:36;;;;;;;;;;;;;;;;;;5133367;27;20049;-66
2024/01/19 00:50:03;;;;;;;;;;;;;;;;;;5126378;27;19927;-66
2024/01/19 00:52:29;;;;;;;;;;;;;;;;;;5104141;28;19938;-67
2024/01/19 00:54:54;;;;;;;;;;;;;;;;;;5132494;27;20374;-66
2024/01/19 00:57:20;;;;;;;;;;;;;;;;;;5126354;27;19920;-66
2024/01/19 00:59:46;;;;;;;;;;;;;;;;;;5128895;27;19929;-66
2024/01/19 01:02:12;;;;;;;;;;;;;;;;;;5127176;27;19926;-66
2024/01/19 01:04:38;;;;;;;;;;;;;;;;;;5123457;27;19919;-66
2024/01/19 01:07:04;;;;;;;;;;;;;;;;;;5127924;27;19923;-66
2024/01/19 01:09:30;;;;;;;;;;;;;;;;;;5127265;27;20292;-66
2024/01/19 01:11:56;;;;;;;;;;;;;;;;;;5108359;27;19919;-66
2024/01/19 01:14:22;;;;;;;;;;;;;;;;;;5132193;27;19927;-67
2024/01/19 01:16:48;;;;;;;;;;;;;;;;;;5126376;27;19950;-67
2024/01/19 01:19:14;;;;;;;;;;;;;;;;;;5133014;27;19927;-67
2024/01/19 01:21:40;;;;;;;;;;;;;;;;;;5111444;27;19927;-67
2024/01/19 01:24:05;;;;;;;;;;;;;;;;;;5130468;27;19926;-67
2024/01/19 01:26:31;;;;;;;;;;;;;;;;;;5128729;27;19930;-67
2024/01/19 01:28:57;;;;;;;;;;;;;;;;;;5107879;27;19950;-67
2024/01/19 01:31:23;;;;;;;;;;;;;;;;;;5123205;27;20361;-66
2024/01/19 01:33:49;;;;;;;;;;;;;;;;;;5128068;27;19919;-66
2024/01/19 01:36:15;;;;;;;;;;;;;;;;;;5130430;27;19935;-67
2024/01/19 01:38:41;;;;;;;;;;;;;;;;;;5130275;27;19924;-66
2024/01/19 01:41:07;;;;;;;;;;;;;;;;;;5124742;27;19979;-66
2024/01/19 01:43:33;;;;;;;;;;;;;;;;;;5121122;27;19943;-66
2024/01/19 01:45:59;;;;;;;;;;;;;;;;;;5125477;27;19955;-66
2024/01/19 01:48:25;;;;;;;;;;;;;;;;;;5120918;27;19982;-65
2024/01/19 01:50:51;;;;;;;;;;;;;;;;;;5130669;27;19923;-65
2024/01/19 01:53:20;;;;;;;;;;;;;;;;;;5109514;27;20044;-66
2024/01/19 01:55:46;;;;;;;;;;;;;;;;;;5123003;27;19923;-66
2024/01/19 01:58:12;;;;;;;;;;;;;;;;;;5130147;27;19919;-66
2024/01/19 02:00:38;;;;;;;;;;;;;;;;;;5117440;27;20010;-66
2024/01/19 02:03:04;;;;;;;;;;;;;;;;;;5119570;27;20018;-66
2024/01/19 02:05:30;;;;;;;;;;;;;;;;;;5109819;27;20071;-66
2024/01/19 02:07:56;;;;;;;;;;;;;;;;;;5107415;27;20333;-66
2024/01/19 02:10:22;;;;;;;;;;;;;;;;;;5129008;27;20013;-66
2024/01/19 02:12:47;;;;;;;;;;;;;;;;;;5129472;22;19927;-70
2024/01/19 02:15:13;;;;;;;;;;;;;;;;;;5110262;27;19930;-70
2024/01/19 02:17:39;;;;;;;;;;;;;;;;;;5120809;27;19962;-70
2024/01/19 02:20:05;;;;;;;;;;;;;;;;;;5130695;27;20008;-70
2024/01/19 02:22:31;;;;;;;;;;;;;;;;;;5127233;27;19931;-71
2024/01/19 02:24:57;;;;;;;;;;;;;;;;;;5112362;27;19919;-71
2024/01/19 02:27:23;;;;;;;;;;;;;;;;;;5091002;27;20284;-71
2024/01/19 02:29:50;;;;;;;;;;;;;;;;;;5126975;27;20376;-71
2024/01/19 02:32:16;;;;;;;;;;;;;;;;;;5123189;27;19931;-71
2024/01/19 02:34:42;;;;;;;;;;;;;;;;;;5104565;28;19962;-71
2024/01/19 02:37:08;;;;;;;;;;;;;;;;;;5127865;27;19974;-71
2024/01/19 02:39:34;;;;;;;;;;;;;;;;;;5129399;27;20364;-71
2024/01/19 02:42:00;;;;;;;;;;;;;;;;;;5127797;27;19965;-71
2024/01/19 02:44:26;;;;;;;;;;;;;;;;;;5106646;28;20003;-71
2024/01/19 02:46:52;;;;;;;;;;;;;;;;;;5094450;27;19931;-71
2024/01/19 02:49:18;;;;;;;;;;;;;;;;;;5124403;27;20391;-71
2024/01/19 02:51:44;;;;;;;;;;;;;;;;;;5129732;27;19919;-71
2024/01/19 02:54:09;;;;;;;;;;;;;;;;;;5123923;27;19919;-71
2024/01/19 02:56:35;;;;;;;;;;;;;;;;;;5126884;27;20371;-71
2024/01/19 02:59:01;;;;;;;;;;;;;;;;;;5111253;28;19924;-71
2024/01/19 03:01:27;;;;;;;;;;;;;;;;;;5126695;27;19923;-71
2024/01/19 03:03:53;;;;;;;;;;;;;;;;;;5120662;27;19919;-71
2024/01/19 03:06:19;;;;;;;;;;;;;;;;;;5127469;28;20677;-71
2024/01/19 03:08:45;;;;;;;;;;;;;;;;;;5109594;28;19950;-70
2024/01/19 03:11:11;;;;;;;;;;;;;;;;;;5131425;28;19934;-71
2024/01/19 03:13:37;;;;;;;;;;;;;;;;;;5111419;28;19920;-71
2024/01/19 03:16:03;;;;;;;;;;;;;;;;;;5111027;28;20416;-71
2024/01/19 03:18:28;;;;;;;;;;;;;;;;;;5127549;28;19928;-71
2024/01/19 03:20:54;;;;;;;;;;;;;;;;;;5098730;27;20069;-71
2024/01/19 03:23:20;;;;;;;;;;;;;;;;;;5126209;27;19972;-71
2024/01/19 03:25:46;;;;;;;;;;;;;;;;;;5134653;27;20658;-70
2024/01/19 03:28:12;;;;;;;;;;;;;;;;;;5125561;27;20014;-71
2024/01/19 03:30:38;;;;;;;;;;;;;;;;;;5131478;27;19919;-71
2024/01/19 03:33:04;;;;;;;;;;;;;;;;;;5134387;27;20048;-70
2024/01/19 03:35:30;;;;;;;;;;;;;;;;;;5107977;27;19930;-71
2024/01/19 03:37:56;;;;;;;;;;;;;;;;;;5101773;27;19924;-71
2024/01/19 03:40:22;;;;;;;;;;;;;;;;;;5128557;27;19930;-71
2024/01/19 03:42:48;;;;;;;;;;;;;;;;;;5129060;27;19919;-71
2024/01/19 03:45:14;;;;;;;;;;;;;;;;;;5131567;27;20376;-71
2024/01/19 03:47:40;;;;;;;;;;;;;;;;;;5134729;27;19934;-70
2024/01/19 03:50:08;;;;;;;;;;;;;;;;;;5106148;27;20010;-70
2024/01/19 03:52:33;;;;;;;;;;;;;;;;;;5112109;27;21343;-69
2024/01/19 03:55:00;;;;;;;;;;;;;;;;;;5126849;27;19973;-70
2024/01/19 03:57:26;;;;;;;;;;;;;;;;;;5117066;27;19934;-70
2024/01/19 03:59:52;;;;;;;;;;;;;;;;;;5129925;27;20417;-69
2024/01/19 04:02:18;;;;;;;;;;;;;;;;;;5113189;27;20018;-71
2024/01/19 04:04:44;;;;;;;;;;;;;;;;;;5126521;27;19920;-71
2024/01/19 04:07:10;;;;;;;;;;;;;;;;;;5111744;27;20401;-71
2024/01/19 04:09:36;;;;;;;;;;;;;;;;;;5130154;27;19932;-71
2024/01/19 04:12:02;;;;;;;;;;;;;;;;;;5113924;27;19924;-71
2024/01/19 04:14:28;;;;;;;;;;;;;;;;;;5132290;27;19924;-69
2024/01/19 04:16:53;;;;;;;;;;;;;;;;;;5107787;27;20399;-69
2024/01/19 04:19:19;;;;;;;;;;;;;;;;;;5134460;27;19920;-69
2024/01/19 04:21:45;;;;;;;;;;;;;;;;;;5110265;27;20399;-70
2024/01/19 04:24:11;;;;;;;;;;;;;;;;;;5130427;27;19928;-70
2024/01/19 04:26:37;;;;;;;;;;;;;;;;;;5108954;27;19923;-69
2024/01/19 04:29:03;;;;;;;;;;;;;;;;;;5111638;27;20384;-71
2024/01/19 04:31:29;;;;;;;;;;;;;;;;;;5128583;27;20311;-70
2024/01/19 04:33:55;;;;;;;;;;;;;;;;;;5125374;27;19923;-71
2024/01/19 04:36:21;;;;;;;;;;;;;;;;;;5106253;28;19926;-71
2024/01/19 04:38:51;;;;;;;;;;;;;;;;;;5129027;27;19920;-71
2024/01/19 04:41:17;;;;;;;;;;;;;;;;;;5115954;27;19934;-70
2024/01/19 04:43:43;;;;;;;;;;;;;;;;;;5132970;27;20292;-70
2024/01/19 04:46:08;;;;;;;;;;;;;;;;;;5133048;27;19923;-70
2024/01/19 04:48:36;;;;;;;;;;;;;;;;;;5136852;27;20308;-70
2024/01/19 04:51:03;;;;;;;;;;;;;;;;;;5132399;27;19920;-71
2024/01/19 04:53:29;;;;;;;;;;;;;;;;;;5131625;27;19927;-71
2024/01/19 04:55:55;;;;;;;;;;;;;;;;;;5134455;27;19919;-71
2024/01/19 04:58:21;;;;;;;;;;;;;;;;;;5133479;27;20018;-70
2024/01/19 05:00:47;;;;;;;;;;;;;;;;;;5111711;27;20038;-70
2024/01/19 05:03:13;;;;;;;;;;;;;;;;;;5129949;27;19919;-70
2024/01/19 05:05:39;;;;;;;;;;;;;;;;;;5125666;27;19979;-71
2024/01/19 05:08:05;;;;;;;;;;;;;;;;;;5124730;27;20372;-70
2024/01/19 05:10:34;;;;;;;;;;;;;;;;;;5108391;27;19923;-71
2024/01/19 05:13:00;;;;;;;;;;;;;;;;;;5113854;27;19951;-70
2024/01/19 05:15:26;;;;;;;;;;;;;;;;;;5124756;27;19941;-71
2024/01/19 05:17:52;;;;;;;;;;;;;;;;;;5128358;27;19923;-70
2024/01/19 05:20:18;;;;;;;;;;;;;;;;;;5129866;27;19923;-71
2024/01/19 05:22:44;;;;;;;;;;;;;;;;;;5129864;27;19919;-71
2024/01/19 05:25:10;;;;;;;;;;;;;;;;;;5131533;27;19920;-71
2024/01/19 05:27:36;;;;;;;;;;;;;;;;;;5114969;27;19932;-71
2024/01/19 05:30:02;;;;;;;;;;;;;;;;;;5131457;27;19927;-71
2024/01/19 05:32:28;;;;;;;;;;;;;;;;;;5134343;27;19927;-71
2024/01/19 05:34:54;;;;;;;;;;;;;;;;;;5116732;27;19927;-70
2024/01/19 05:37:20;;;;;;;;;;;;;;;;;;5124716;27;19920;-71
2024/01/19 05:39:46;;;;;;;;;;;;;;;;;;5128052;27;20356;-71
2024/01/19 05:42:12;;;;;;;;;;;;;;;;;;5124855;27;20015;-71
2024/01/19 05:44:40;;;;;;;;;;;;;;;;;;5106018;27;19934;-71
2024/01/19 05:47:06;;;;;;;;;;;;;;;;;;5129912;27;19976;-71
2024/01/19 05:49:31;;;;;;;;;;;;;;;;;;5130692;27;20330;-71
2024/01/19 05:51:58;;;;;;;;;;;;;;;;;;5104557;27;20013;-71
2024/01/19 05:54:24;;;;;;;;;;;;;;;;;;5127449;27;20382;-71
2024/01/19 05:56:50;;;;;;;;;;;;;;;;;;5098808;27;20097;-69
2024/01/19 05:59:16;;;;;;;;;;;;;;;;;;5104056;27;19998;-71
2024/01/19 06:01:42;;;;;;;;;;;;;;;;;;5125215;27;19920;-71
2024/01/19 06:04:07;;;;;;;;;;;;;;;;;;5131238;27;19920;-71
2024/01/19 06:06:33;;;;;;;;;;;;;;;;;;5129776;27;19924;-71
2024/01/19 06:08:59;;;;;;;;;;;;;;;;;;5110694;27;19930;-71
2024/01/19 06:11:25;;;;;;;;;;;;;;;;;;5111616;27;20299;-71
2024/01/19 06:13:51;;;;;;;;;;;;;;;;;;5133441;27;20360;-71
2024/01/19 06:16:17;;;;;;;;;;;;;;;;;;5133148;27;19923;-71
2024/01/19 06:18:43;;;;;;;;;;;;;;;;;;5128910;27;20014;-71
2024/01/19 06:21:09;;;;;;;;;;;;;;;;;;5133126;27;20257;-71
2024/01/19 06:23:35;;;;;;;;;;;;;;;;;;5130348;27;20006;-71
2024/01/19 06:26:01;;;;;;;;;;;;;;;;;;5132807;27;19971;-71
2024/01/19 06:28:27;;;;;;;;;;;;;;;;;;5128490;27;19963;-71
2024/01/19 06:30:53;;;;;;;;;;;;;;;;;;5102608;27;19962;-71
2024/01/19 06:33:19;;;;;;;;;;;;;;;;;;5121498;27;20488;-70
2024/01/19 06:35:45;;;;;;;;;;;;;;;;;;5119788;27;20307;-71
2024/01/19 06:38:11;;;;;;;;;;;;;;;;;;5118175;27;19980;-71
2024/01/19 06:40:36;;;;;;;;;;;;;;;;;;5124712;27;20372;-71
2024/01/19 06:43:02;;;;;;;;;;;;;;;;;;5105095;27;19920;-71
2024/01/19 06:45:28;;;;;;;;;;;;;;;;;;5126654;27;19923;-71
2024/01/19 06:47:54;;;;;;;;;;;;;;;;;;5113044;27;19954;-71
2024/01/19 06:50:22;;;;;;;;;;;;;;;;;;5127181;27;20003;-71
2024/01/19 06:52:48;;;;;;;;;;;;;;;;;;5112418;27;19957;-71
2024/01/19 06:55:14;;;;;;;;;;;;;;;;;;5107530;27;19955;-71
2024/01/19 06:57:40;;;;;;;;;;;;;;;;;;5107574;27;20035;-71
2024/01/19 07:00:06;;;;;;;;;;;;;;;;;;5090351;27;20023;-71
2024/01/19 07:02:32;;;;;;;;;;;;;;;;;;5122443;27;20119;-71
2024/01/19 07:04:58;;;;;;;;;;;;;;;;;;5106780;28;20014;-71
2024/01/19 07:07:24;;;;;;;;;;;;;;;;;;5096595;28;19939;-72
2024/01/19 07:09:50;;;;;;;;;;;;;;;;;;5123576;28;20345;-71
2024/01/19 07:12:18;;;;;;;;;;;;;;;;;;5091957;28;19931;-70
2024/01/19 07:14:44;;;;;;;;;;;;;;;;;;5130886;28;19923;-70
2024/01/19 07:17:10;;;;;;;;;;;;;;;;;;5107518;28;19923;-70
2024/01/19 07:19:36;;;;;;;;;;;;;;;;;;5126808;28;19930;-70
2024/01/19 07:22:02;;;;;;;;;;;;;;;;;;5132047;28;19923;-70
2024/01/19 07:24:32;;;;;;;;;;;;;;;;;;5109732;28;19926;-70
2024/01/19 07:26:58;;;;;;;;;;;;;;;;;;5123805;28;19966;-70
2024/01/19 07:29:24;;;;;;;;;;;;;;;;;;5111109;28;20373;-71
2024/01/19 07:31:50;;;;;;;;;;;;;;;;;;5122204;27;20022;-71
2024/01/19 07:34:16;;;;;;;;;;;;;;;;;;5131449;28;20010;-71
2024/01/19 07:36:44;;;;;;;;;;;;;;;;;;5100378;27;20006;-72
2024/01/19 07:39:10;;;;;;;;;;;;;;;;;;5126963;27;19920;-71
2024/01/19 07:41:36;;;;;;;;;;;;;;;;;;5120402;28;20278;-71
2024/01/19 07:44:02;;;;;;;;;;;;;;;;;;5111991;28;20415;-71
2024/01/19 07:46:28;;;;;;;;;;;;;;;;;;5125247;28;20007;-71
2024/01/19 07:48:54;;;;;;;;;;;;;;;;;;5127955;28;19923;-71
2024/01/19 07:51:20;;;;;;;;;;;;;;;;;;5127559;28;20006;-71
2024/01/19 07:53:46;;;;;;;;;;;;;;;;;;5128856;28;19931;-71
2024/01/19 07:56:12;;;;;;;;;;;;;;;;;;5107706;28;19927;-71
2024/01/19 07:58:38;;;;;;;;;;;;;;;;;;5126294;28;19964;-70
2024/01/19 08:01:04;;;;;;;;;;;;;;;;;;5105293;28;19923;-70
2024/01/19 08:03:30;;;;;;;;;;;;;;;;;;5111572;28;19919;-70
2024/01/19 08:05:56;;;;;;;;;;;;;;;;;;5104615;28;19951;-70
2024/01/19 08:08:22;;;;;;;;;;;;;;;;;;5108239;28;19927;-71
2024/01/19 08:10:48;;;;;;;;;;;;;;;;;;5128495;22;20372;-67
2024/01/19 08:13:14;;;;;;;;;;;;;;;;;;5112515;27;19932;-67
2024/01/19 08:15:40;;;;;;;;;;;;;;;;;;5132900;27;19963;-67
2024/01/19 08:18:06;;;;;;;;;;;;;;;;;;5131551;27;20049;-67
2024/01/19 08:20:32;;;;;;;;;;;;;;;;;;5116088;27;19924;-68
2024/01/19 08:22:58;;;;;;;;;;;;;;;;;;5131720;27;19923;-67
2024/01/19 08:25:24;;;;;;;;;;;;;;;;;;5112907;27;19931;-67
2024/01/19 08:27:50;;;;;;;;;;;;;;;;;;5129259;27;20045;-67
2024/01/19 08:30:16;;;;;;;;;;;;;;;;;;5130671;27;20005;-67
2024/01/19 08:32:42;;;;;;;;;;;;;;;;;;5127662;27;19920;-67
2024/01/19 08:35:11;;;;;;;;;;;;;;;;;;5130362;27;20000;-67
2024/01/19 08:37:37;;;;;;;;;;;;;;;;;;5103470;27;20150;-67
2024/01/19 08:40:04;;;;;;;;;;;;;;;;;;5125289;27;20249;-67
2024/01/19 08:42:29;;;;;;;;;;;;;;;;;;5107986;27;19931;-67
2024/01/19 08:44:55;;;;;;;;;;;;;;;;;;5111746;27;19930;-67
2024/01/19 08:47:21;;;;;;;;;;;;;;;;;;5127507;27;19923;-66
2024/01/19 08:49:47;;;;;;;;;;;;;;;;;;5127709;27;19924;-66
2024/01/19 08:52:13;;;;;;;;;;;;;;;;;;5126840;27;19927;-66
2024/01/19 08:54:39;;;;;;;;;;;;;;;;;;5130702;27;19927;-66
2024/01/19 08:57:05;;;;;;;;;;;;;;;;;;5129332;27;20600;-66
2024/01/19 08:59:32;;;;;;;;;;;;;;;;;;5109418;27;19919;-66
2024/01/19 09:01:58;;;;;;;;;;;;;;;;;;5120772;27;19935;-67
2024/01/19 09:04:24;;;;;;;;;;;;;;;;;;5130591;27;20352;-67
2024/01/19 09:06:50;;;;;;;;;;;;;;;;;;5109590;27;19919;-67
2024/01/19 09:09:16;;;;;;;;;;;;;;;;;;5128296;27;19934;-67
2024/01/19 09:11:42;;;;;;;;;;;;;;;;;;5128942;27;19931;-67
2024/01/19 09:14:10;;;;;;;;;;;;;;;;;;5123746;27;19964;-68
2024/01/19 09:16:36;;;;;;;;;;;;;;;;;;5131257;27;19947;-67
2024/01/19 09:19:01;;;;;;;;;;;;;;;;;;5123713;27;19955;-67
2024/01/19 09:21:27;;;;;;;;;;;;;;;;;;5096505;27;19962;-67
2024/01/19 09:23:53;;;;;;;;;;;;;;;;;;5130657;27;20280;-67
2024/01/19 09:26:19;;;;;;;;;;;;;;;;;;5110730;27;19926;-67
2024/01/19 09:28:45;;;;;;;;;;;;;;;;;;5126280;27;20014;-65
2024/01/19 09:31:11;;;;;;;;;;;;;;;;;;5128437;27;20022;-66
2024/01/19 09:33:37;;;;;;;;;;;;;;;;;;5129459;27;19945;-66
2024/01/19 09:36:03;;;;;;;;;;;;;;;;;;5111525;27;19920;-65
2024/01/19 09:38:29;;;;;;;;;;;;;;;;;;5126215;27;19920;-66
2024/01/19 09:40:55;;;;;;;;;;;;;;;;;;5125939;27;20514;-66
2024/01/19 09:43:21;;;;;;;;;;;;;;;;;;5098940;28;19927;-66
2024/01/19 09:45:47;;;;;;;;;;;;;;;;;;5119696;27;19920;-66
2024/01/19 09:48:13;;;;;;;;;;;;;;;;;;5119803;27;20034;-66
2024/01/19 09:50:38;;;;;;;;;;;;;;;;;;5124586;27;19980;-67
2024/01/19 09:53:04;;;;;;;;;;;;;;;;;;5125140;27;19920;-67
2024/01/19 09:55:31;;;;;;;;;;;;;;;;;;5128574;27;19926;-67
2024/01/19 09:57:56;;;;;;;;;;;;;;;;;;5124409;27;20507;-67
2024/01/19 10:00:23;;;;;;;;;;;;;;;;;;5111548;27;19934;-67
2024/01/19 10:02:49;;;;;;;;;;;;;;;;;;5123925;27;20546;-67
2024/01/19 10:05:15;;;;;;;;;;;;;;;;;;5115878;27;20014;-67
2024/01/19 10:07:41;;;;;;;;;;;;;;;;;;5120798;27;19953;-66
2024/01/19 10:10:07;;;;;;;;;;;;;;;;;;5131222;27;19919;-67
2024/01/19 10:12:33;;;;;;;;;;;;;;;;;;5112912;27;20025;-66
2024/01/19 10:14:59;;;;;;;;;;;;;;;;;;5124811;27;20061;-66
2024/01/19 10:17:25;;;;;;;;;;;;;;;;;;5126956;27;20055;-66
2024/01/19 10:19:51;;;;;;;;;;;;;;;;;;5127269;27;20084;-67
2024/01/19 10:22:17;;;;;;;;;;;;;;;;;;5103497;27;20820;-67
2024/01/19 10:24:43;;;;;;;;;;;;;;;;;;5131065;27;20045;-67
2024/01/19 10:27:09;;;;;;;;;;;;;;;;;;5127865;27;19930;-67
2024/01/19 10:29:35;;;;;;;;;;;;;;;;;;5121711;27;20006;-67
2024/01/19 10:32:02;;;;;;;;;;;;;;;;;;5130329;27;20754;-67
2024/01/19 10:34:28;;;;;;;;;;;;;;;;;;5111978;27;20014;-66
2024/01/19 10:36:54;;;;;;;;;;;;;;;;;;5120726;27;19969;-66
2024/01/19 10:39:20;;;;;;;;;;;;;;;;;;5122766;27;20326;-66
2024/01/19 10:41:46;;;;;;;;;;;;;;;;;;5129868;27;19919;-67
2024/01/19 10:44:12;;;;;;;;;;;;;;;;;;5129416;27;19919;-66
2024/01/19 10:46:38;;;;;;;;;;;;;;;;;;5128137;27;19923;-66
2024/01/19 10:49:04;;;;;;;;;;;;;;;;;;5095828;27;19937;-66
2024/01/19 10:51:32;;;;;;;;;;;;;;;;;;5117069;27;19920;-66
2024/01/19 10:53:58;;;;;;;;;;;;;;;;;;5121841;27;19927;-66
2024/01/19 10:56:24;;;;;;;;;;;;;;;;;;5106779;28;19965;-66
2024/01/19 10:58:50;;;;;;;;;;;;;;;;;;5102841;28;20352;-66
2024/01/19 11:01:16;;;;;;;;;;;;;;;;;;5122243;27;20006;-65
2024/01/19 11:03:45;;;;;;;;;;;;;;;;;;5101990;27;19924;-65
2024/01/19 11:06:11;;;;;;;;;;;;;;;;;;5123686;28;19992;-66
2024/01/19 11:08:37;;;;;;;;;;;;;;;;;;5119334;27;19939;-66
2024/01/19 11:11:03;;;;;;;;;;;;;;;;;;5097882;28;20471;-67
2024/01/19 11:13:29;;;;;;;;;;;;;;;;;;5122937;28;19920;-67
2024/01/19 11:15:55;;;;;;;;;;;;;;;;;;5124118;28;20353;-66
2024/01/19 11:18:21;;;;;;;;;;;;;;;;;;5129299;28;19931;-66
2024/01/19 11:20:47;;;;;;;;;;;;;;;;;;5126408;27;19924;-67
2024/01/19 11:23:13;;;;;;;;;;;;;;;;;;5126500;28;19946;-65
2024/01/19 11:25:39;;;;;;;;;;;;;;;;;;5112273;28;19929;-67
2024/01/19 11:28:05;;;;;;;;;;;;;;;;;;5123439;28;19931;-66
2024/01/19 11:30:31;;;;;;;;;;;;;;;;;;5127068;28;19923;-66
2024/01/19 11:32:57;;;;;;;;;;;;;;;;;;5128401;28;19939;-66
2024/01/19 11:35:23;;;;;;;;;;;;;;;;;;5110935;28;20017;-66
2024/01/19 11:37:49;;;;;;;;;;;;;;;;;;5125318;28;19927;-66
2024/01/19 11:40:15;;;;;;;;;;;;;;;;;;5125741;28;19926;-66
2024/01/19 11:42:40;;;;;;;;;;;;;;;;;;5120558;28;19927;-66
2024/01/19 11:45:06;;;;;;;;;;;;;;;;;;5114958;27;20060;-67
2024/01/19 11:47:32;;;;;;;;;;;;;;;;;;5130043;27;20285;-66
2024/01/19 11:49:58;;;;;;;;;;;;;;;;;;5127424;27;20388;-67
2024/01/19 11:52:24;;;;;;;;;;;;;;;;;;5129215;27;19919;-66
2024/01/19 11:54:50;;;;;;;;;;;;;;;;;;5123911;27;19966;-66
2024/01/19 11:57:16;;;;;;;;;;;;;;;;;;5107092;27;19972;-67
2024/01/19 11:59:42;;;;;;;;;;;;;;;;;;5088993;27;19919;-67
2024/01/19 12:02:08;;;;;;;;;;;;;;;;;;5125658;27;20011;-66
2024/01/19 12:04:34;;;;;;;;;;;;;;;;;;5130009;27;20023;-67
2024/01/19 12:07:00;;;;;;;;;;;;;;;;;;5131837;27;19963;-67
2024/01/19 12:09:26;;;;;;;;;;;;;;;;;;5111195;27;20355;-67
2024/01/19 12:11:51;;;;;;;;;;;;;;;;;;5125348;27;20053;-67
2024/01/19 12:14:17;;;;;;;;;;;;;;;;;;5130164;27;20348;-67
2024/01/19 12:16:43;;;;;;;;;;;;;;;;;;5125046;27;19972;-67
2024/01/19 12:19:09;;;;;;;;;;;;;;;;;;5113236;27;19972;-67
2024/01/19 12:21:35;;;;;;;;;;;;;;;;;;5109576;28;19969;-68
2024/01/19 12:24:01;;;;;;;;;;;;;;;;;;5126938;27;20010;-67
2024/01/19 12:26:27;;;;;;;;;;;;;;;;;;5121466;27;19927;-67
2024/01/19 12:28:53;;;;;;;;;;;;;;;;;;5129832;27;20276;-67
2024/01/19 12:31:19;;;;;;;;;;;;;;;;;;5124854;27;20033;-67
2024/01/19 12:33:45;;;;;;;;;;;;;;;;;;5109306;27;19924;-67
2024/01/19 12:36:11;;;;;;;;;;;;;;;;;;5126181;27;19927;-67
2024/01/19 12:38:37;;;;;;;;;;;;;;;;;;5109935;28;19959;-67
2024/01/19 12:41:06;;;;;;;;;;;;;;;;;;5125027;27;19923;-65
2024/01/19 12:43:32;;;;;;;;;;;;;;;;;;5117422;27;20055;-66
2024/01/19 12:45:57;;;;;;;;;;;;;;;;;;5128283;27;19923;-67
2024/01/19 12:48:23;;;;;;;;;;;;;;;;;;5103579;27;20043;-66
2024/01/19 12:50:49;;;;;;;;;;;;;;;;;;5112633;27;19930;-67
2024/01/19 12:53:15;;;;;;;;;;;;;;;;;;5130205;27;19920;-67
2024/01/19 12:55:41;;;;;;;;;;;;;;;;;;5129893;27;19943;-67
2024/01/19 12:58:08;;;;;;;;;;;;;;;;;;5131448;27;20006;-67
2024/01/19 13:00:34;;;;;;;;;;;;;;;;;;5106319;27;20403;-67
2024/01/19 13:03:00;;;;;;;;;;;;;;;;;;5108385;27;19948;-67
2024/01/19 13:05:27;;;;;;;;;;;;;;;;;;5109386;27;19944;-68
2024/01/19 13:07:53;;;;;;;;;;;;;;;;;;5132936;27;20030;-68
2024/01/19 13:10:18;;;;;;;;;;;;;;;;;;5127347;27;20444;-67
2024/01/19 13:12:44;;;;;;;;;;;;;;;;;;5133491;27;19924;-68
2024/01/19 13:15:10;;;;;;;;;;;;;;;;;;5115538;27;19938;-68
2024/01/19 13:17:38;;;;;;;;;;;;;;;;;;5112393;27;19927;-67
2024/01/19 13:20:04;;;;;;;;;;;;;;;;;;5131846;27;19967;-67
2024/01/19 13:22:30;;;;;;;;;;;;;;;;;;5112491;27;19951;-68
2024/01/19 13:24:56;;;;;;;;;;;;;;;;;;5129493;27;19919;-67
2024/01/19 13:27:22;;;;;;;;;;;;;;;;;;5127608;27;19931;-67
2024/01/19 13:29:48;;;;;;;;;;;;;;;;;;5121303;27;19934;-66
2024/01/19 13:32:14;;;;;;;;;;;;;;;;;;5127975;27;19919;-65
2024/01/19 13:34:40;;;;;;;;;;;;;;;;;;5111796;27;19926;-67
2024/01/19 13:37:06;;;;;;;;;;;;;;;;;;5126247;27;19930;-67
2024/01/19 13:39:31;;;;;;;;;;;;;;;;;;5114527;27;19926;-66
2024/01/19 13:41:57;;;;;;;;;;;;;;;;;;5131679;27;19924;-67
2024/01/19 13:44:24;;;;;;;;;;;;;;;;;;5113497;27;19932;-68
2024/01/19 13:46:50;;;;;;;;;;;;;;;;;;5118321;27;19927;-67
2024/01/19 13:49:16;;;;;;;;;;;;;;;;;;5115296;27;20308;-68
2024/01/19 13:51:42;;;;;;;;;;;;;;;;;;5114055;27;19919;-67
2024/01/19 13:54:08;;;;;;;;;;;;;;;;;;5116745;27;19966;-67
2024/01/19 13:56:33;;;;;;;;;;;;;;;;;;5132339;27;19927;-67
2024/01/19 13:58:59;;;;;;;;;;;;;;;;;;5106230;27;19961;-67
2024/01/19 14:01:25;;;;;;;;;;;;;;;;;;5107555;27;19923;-67
2024/01/19 14:03:53;;;;;;;;;;;;;;;;;;5113262;27;19928;-67
2024/01/19 14:06:19;;;;;;;;;;;;;;;;;;5126044;27;19920;-67
2024/01/19 14:08:45;;;;;;;;;;;;;;;;;;5128225;27;19974;-67
2024/01/19 14:11:11;;;;;;;;;;;;;;;;;;5123233;22;20014;-71
2024/01/19 14:13:37;;;;;;;;;;;;;;;;;;5095595;28;20384;-71
2024/01/19 14:16:03;;;;;;;;;;;;;;;;;;5093101;28;19931;-71
2024/01/19 14:18:30;;;;;;;;;;;;;;;;;;5113998;28;19931;-71
2024/01/19 14:20:56;;;;;;;;;;;;;;;;;;5072557;28;20292;-72
2024/01/19 14:23:22;;;;;;;;;;;;;;;;;;5108715;28;19927;-71
2024/01/19 14:25:48;;;;;;;;;;;;;;;;;;5114136;28;19931;-71
2024/01/19 14:28:14;;;;;;;;;;;;;;;;;;5104630;28;20281;-71
2024/01/19 14:30:41;;;;;;;;;;;;;;;;;;5101259;28;19928;-71
2024/01/19 14:33:07;;;;;;;;;;;;;;;;;;5109050;28;19959;-71
2024/01/19 14:35:33;;;;;;;;;;;;;;;;;;5109108;28;19942;-71
2024/01/19 14:37:59;;;;;;;;;;;;;;;;;;5111211;28;19924;-69
2024/01/19 14:40:25;;;;;;;;;;;;;;;;;;5104910;28;19927;-69
2024/01/19 14:42:51;;;;;;;;;;;;;;;;;;5106356;28;19920;-69
2024/01/19 14:45:17;;;;;;;;;;;;;;;;;;5105590;28;19972;-69
2024/01/19 14:47:43;;;;;;;;;;;;;;;;;;5107032;28;19919;-69
2024/01/19 14:50:09;;;;;;;;;;;;;;;;;;5089257;28;19928;-71
2024/01/19 14:52:35;;;;;;;;;;;;;;;;;;5106153;28;19927;-71
2024/01/19 14:55:06;;;;;;;;;;;;;;;;;;5087600;28;20014;-70
2024/01/19 14:57:32;;;;;;;;;;;;;;;;;;5110634;28;19923;-71
2024/01/19 14:59:58;;;;;;;;;;;;;;;;;;5087855;28;19924;-70
2024/01/19 15:02:24;;;;;;;;;;;;;;;;;;5085206;28;19931;-70
2024/01/19 15:04:51;;;;;;;;;;;;;;;;;;5110077;28;19957;-71
2024/01/19 15:07:17;;;;;;;;;;;;;;;;;;5109870;28;19947;-71
2024/01/19 15:09:45;;;;;;;;;;;;;;;;;;5104831;28;20571;-70
2024/01/19 15:12:10;;;;;;;;;;;;;;;;;;5103762;28;19920;-71
2024/01/19 15:14:36;;;;;;;;;;;;;;;;;;5080708;28;19961;-70
2024/01/19 15:17:02;;;;;;;;;;;;;;;;;;5093388;28;19924;-71
2024/01/19 15:19:28;;;;;;;;;;;;;;;;;;5081250;28;19931;-70
2024/01/19 15:21:56;;;;;;;;;;;;;;;;;;5090929;28;19973;-70
2024/01/19 15:24:22;;;;;;;;;;;;;;;;;;5108084;28;19963;-70
2024/01/19 15:26:48;;;;;;;;;;;;;;;;;;5105140;28;19958;-70
2024/01/19 15:29:14;;;;;;;;;;;;;;;;;;5103144;28;20732;-70
2024/01/19 15:31:40;;;;;;;;;;;;;;;;;;5078550;28;19974;-70
2024/01/19 15:34:06;;;;;;;;;;;;;;;;;;5092851;28;19920;-70
2024/01/19 15:36:34;;;;;;;;;;;;;;;;;;5112104;28;19924;-70
2024/01/19 15:39:00;;;;;;;;;;;;;;;;;;5110776;28;19930;-69
2024/01/19 15:41:26;;;;;;;;;;;;;;;;;;5111997;27;20009;-69
2024/01/19 15:43:52;;;;;;;;;;;;;;;;;;5103942;28;19920;-70
2024/01/19 15:46:18;;;;;;;;;;;;;;;;;;5105376;28;19919;-70
2024/01/19 15:48:44;;;;;;;;;;;;;;;;;;5076936;28;19924;-69
2024/01/19 15:51:09;;;;;;;;;;;;;;;;;;5103333;27;19973;-69
2024/01/19 15:53:36;;;;;;;;;;;;;;;;;;5091782;28;19962;-70
2024/01/19 15:56:02;;;;;;;;;;;;;;;;;;5106541;28;19935;-70
2024/01/19 15:58:27;;;;;;;;;;;;;;;;;;5091597;28;19962;-70
2024/01/19 16:00:54;;;;;;;;;;;;;;;;;;5103557;28;19959;-71
2024/01/19 16:03:20;;;;;;;;;;;;;;;;;;5106966;28;19930;-70
2024/01/19 16:05:46;;;;;;;;;;;;;;;;;;5111278;28;19999;-70
2024/01/19 16:08:11;;;;;;;;;;;;;;;;;;5091578;28;19924;-70
2024/01/19 16:10:37;;;;;;;;;;;;;;;;;;5092456;28;20266;-70
2024/01/19 16:13:03;;;;;;;;;;;;;;;;;;5102084;28;19926;-70
2024/01/19 16:15:29;;;;;;;;;;;;;;;;;;5093863;28;20027;-70
2024/01/19 16:17:55;;;;;;;;;;;;;;;;;;5111456;28;19955;-70
2024/01/19 16:20:21;;;;;;;;;;;;;;;;;;5108242;28;20384;-70
2024/01/19 16:22:47;;;;;;;;;;;;;;;;;;5112214;28;19920;-70
2024/01/19 16:25:13;;;;;;;;;;;;;;;;;;5107837;27;19919;-71
2024/01/19 16:27:39;;;;;;;;;;;;;;;;;;5086147;28;19935;-69
2024/01/19 16:30:05;;;;;;;;;;;;;;;;;;5107742;28;19927;-70
2024/01/19 16:32:31;;;;;;;;;;;;;;;;;;5108289;28;19924;-69
2024/01/19 16:34:57;;;;;;;;;;;;;;;;;;5103694;28;20300;-70
2024/01/19 16:37:23;;;;;;;;;;;;;;;;;;5111478;28;19970;-70